KORD/ORD METAR and TAF weather

Enter ICAO airport designator
Station Type Date Time Source
KORD METAR 2024/06/15 22:51 UTC NOAA

KORD 152251Z 14013G17KT 10SM FEW075 SCT200 BKN250 29/15 A3000 RMK AO2 SLP154 T02890150


Station Type Date Time Source
KORD Decoded METAR 2024/06/15 22:51 UTC NOAA

CHICAGO O'HARE INTERNATIONAL, IL, United States (KORD) 41-59N 087-55W 200M
Jun 15, 2024 - 06:51 PM EDT / 2024.06.15 2251 UTC
Wind: from the SE (140 degrees) at 15 MPH (13 KT) gusting to 20 MPH (17 KT):0
Visibility: 10 mile(s):0
Sky conditions: mostly cloudy
Temperature: 84.0 F (28.9 C)
Dew Point: 59.0 F (15.0 C)
Relative Humidity: 42%
Pressure (altimeter): 30 in. Hg (1015 hPa)
ob: KORD 152251Z 14013G17KT 10SM FEW075 SCT200 BKN250 29/15 A3000 RMK AO2 SLP154 T02890150
cycle: 23

Station Type Date Time Source
KORD TAF 2024/06/15 21:04 UTC NOAA